createdAt,value
2023-04-17T00:01:05.743Z,6.60
2023-04-17T00:03:15.105Z,3.65
2023-04-17T00:05:17.279Z,3.22
2023-04-17T00:07:22.755Z,5.53
2023-04-17T00:09:27.150Z,4.97
2023-04-17T00:11:31.589Z,5.35
2023-04-17T00:13:33.066Z,4.47
2023-04-17T00:17:41.400Z,5.55
2023-04-17T00:19:46.015Z,6.00
2023-04-17T00:21:47.434Z,3.10
2023-04-17T00:23:51.532Z,3.58
2023-04-17T00:27:56.984Z,6.93
2023-04-17T00:29:58.599Z,4.95
2023-04-17T00:32:03.405Z,3.78
2023-04-17T00:34:04.993Z,2.80
2023-04-17T00:36:06.815Z,3.80
2023-04-17T00:38:09.226Z,7.75
2023-04-17T00:40:11.228Z,8.65
2023-04-17T00:42:12.658Z,3.13
2023-04-17T00:44:17.057Z,3.10
2023-04-17T00:46:18.739Z,5.97
2023-04-17T00:48:23.958Z,7.80
2023-04-17T00:50:26.517Z,5.32
2023-04-17T00:52:29.885Z,9.07
2023-04-17T00:54:35.530Z,3.35
2023-04-17T00:56:37.006Z,4.25
2023-04-17T00:58:38.802Z,6.82
2023-04-17T01:00:43.077Z,3.17
2023-04-17T01:02:45.247Z,7.20
2023-04-17T01:04:49.820Z,5.43
2023-04-17T01:06:52.988Z,1.83
2023-04-17T01:08:54.821Z,7.83
2023-04-17T01:10:58.891Z,4.40
2023-04-17T01:13:03.849Z,2.70
2023-04-17T01:15:08.409Z,5.05
2023-04-17T01:17:15.600Z,5.38
2023-04-17T01:19:17.477Z,6.35
2023-04-17T01:21:24.489Z,5.72
2023-04-17T01:23:42.714Z,5.78
2023-04-17T01:25:46.996Z,3.20
2023-04-17T01:28:07.152Z,6.13
2023-04-17T01:32:12.881Z,5.10
2023-04-17T01:34:34.256Z,4.05
2023-04-17T01:36:37.025Z,6.00
2023-04-17T01:38:38.798Z,5.28
2023-04-17T01:40:58.901Z,6.60
2023-04-17T01:43:02.924Z,4.88
2023-04-17T01:45:23.089Z,7.35
2023-04-17T01:49:30.990Z,6.43
2023-04-17T01:51:35.229Z,4.55
2023-04-17T01:53:37.880Z,5.43
2023-04-17T01:55:39.437Z,4.25
2023-04-17T01:57:41.123Z,7.55
2023-04-17T01:59:45.146Z,6.28
2023-04-17T02:01:46.865Z,5.55
2023-04-17T02:04:07.362Z,3.67
2023-04-17T02:06:11.966Z,6.40
2023-04-17T02:08:14.264Z,4.38
2023-04-17T02:10:15.962Z,7.65
2023-04-17T02:12:20.450Z,3.38
2023-04-17T02:14:22.078Z,5.57
2023-04-17T02:16:23.561Z,4.85
2023-04-17T02:18:43.496Z,4.40
2023-04-17T02:20:44.990Z,6.90
2023-04-17T02:23:05.765Z,4.45
2023-04-17T02:25:10.002Z,5.15
2023-04-17T02:29:20.244Z,5.57
2023-04-17T02:31:33.077Z,5.63
2023-04-17T02:34:01.797Z,4.13
2023-04-17T02:36:13.156Z,4.05
2023-04-17T02:38:28.225Z,7.88
2023-04-17T02:40:36.764Z,5.97
2023-04-17T02:42:49.502Z,3.20
2023-04-17T02:45:00.022Z,5.90
2023-04-17T02:47:12.499Z,4.65
2023-04-17T02:49:17.107Z,5.15
2023-04-17T02:51:28.688Z,9.57
2023-04-17T02:53:41.491Z,7.05
2023-04-17T02:56:08.911Z,5.80
2023-04-17T02:58:19.366Z,8.43
2023-04-17T03:00:32.491Z,12.15
2023-04-17T03:02:42.661Z,9.73
2023-04-17T03:04:54.299Z,5.35
2023-04-17T03:06:55.844Z,4.43
2023-04-17T03:11:04.578Z,5.43
2023-04-17T03:13:06.348Z,4.93
2023-04-17T03:15:08.936Z,3.60
2023-04-17T03:17:15.518Z,4.45
2023-04-17T03:19:19.684Z,8.65
2023-04-17T03:21:21.155Z,9.05
2023-04-17T03:23:25.557Z,4.80
2023-04-17T03:27:49.683Z,8.68
2023-04-17T03:29:51.529Z,4.43
2023-04-17T03:32:11.561Z,3.08
2023-04-17T03:34:16.876Z,4.60
2023-04-17T03:36:20.876Z,2.38
2023-04-17T03:38:25.185Z,7.97
2023-04-17T03:40:27.024Z,6.20
2023-04-17T03:42:28.514Z,5.75
2023-04-17T03:44:29.914Z,10.32
2023-04-17T03:46:50.203Z,4.38
2023-04-17T03:48:51.662Z,7.30
2023-04-17T03:50:56.804Z,4.25
2023-04-17T03:53:00.981Z,9.77
2023-04-17T03:55:02.480Z,9.13
2023-04-17T03:57:04.135Z,3.55
2023-04-17T03:59:08.604Z,4.43
2023-04-17T04:01:28.728Z,2.30
2023-04-17T04:03:30.952Z,7.30
2023-04-17T04:05:32.776Z,5.05
2023-04-17T04:07:36.892Z,3.60
2023-04-17T04:09:38.275Z,5.72
2023-04-17T04:11:39.721Z,4.80
2023-04-17T04:13:44.015Z,4.85
2023-04-17T04:15:45.735Z,2.78
2023-04-17T04:17:49.765Z,8.30
2023-04-17T04:19:54.136Z,4.28
2023-04-17T04:21:58.637Z,7.03
2023-04-17T04:24:00.285Z,7.60
2023-04-17T04:26:04.586Z,6.00
2023-04-17T04:28:24.777Z,6.55
2023-04-17T04:32:32.065Z,5.10
2023-04-17T04:36:41.974Z,5.35
2023-04-17T04:38:46.665Z,2.78
2023-04-17T04:40:52.328Z,5.93
2023-04-17T04:43:12.732Z,4.28
2023-04-17T04:47:21.204Z,4.43
2023-04-17T04:49:22.721Z,4.07
2023-04-17T04:51:27.078Z,5.90
2023-04-17T04:53:28.836Z,5.70
2023-04-17T04:55:33.061Z,9.50
2023-04-17T04:57:37.412Z,5.60
2023-04-17T04:59:39.242Z,3.53
2023-04-17T05:01:44.898Z,10.63
2023-04-17T05:03:46.955Z,10.50
2023-04-17T05:05:51.390Z,8.98
2023-04-17T05:07:55.762Z,4.70
2023-04-17T05:12:01.457Z,5.80
2023-04-17T05:14:02.994Z,3.60
2023-04-17T05:16:04.533Z,5.30
2023-04-17T05:18:09.004Z,6.65
2023-04-17T05:20:13.427Z,2.72
2023-04-17T05:22:17.415Z,4.40
2023-04-17T05:24:18.913Z,4.40
2023-04-17T05:26:23.071Z,5.93
2023-04-17T05:28:24.630Z,6.07
2023-04-17T05:30:44.724Z,6.53
2023-04-17T05:32:49.153Z,4.20
2023-04-17T05:34:52.669Z,6.55
2023-04-17T05:36:56.774Z,7.13
2023-04-17T05:39:02.511Z,3.40
2023-04-17T05:41:07.377Z,2.75
2023-04-17T05:43:12.377Z,9.55
2023-04-17T05:45:14.621Z,7.43
2023-04-17T05:47:19.955Z,7.97
2023-04-17T05:49:22.653Z,4.63
2023-04-17T05:51:27.084Z,2.78
2023-04-17T05:53:31.082Z,8.07
2023-04-17T05:55:35.364Z,4.05
2023-04-17T06:00:00.764Z,4.85
2023-04-17T06:02:03.139Z,7.78
2023-04-17T06:04:08.343Z,8.45
2023-04-17T06:06:10.038Z,8.40
2023-04-17T06:08:11.690Z,6.90
2023-04-17T06:10:13.994Z,6.78
2023-04-17T06:12:16.331Z,5.60
2023-04-17T06:14:18.587Z,4.30
2023-04-17T06:16:40.568Z,11.30
2023-04-17T06:18:42.989Z,8.95
2023-04-17T06:20:47.258Z,7.47
2023-04-17T06:23:07.328Z,11.98
2023-04-17T06:27:13.135Z,5.25
2023-04-17T06:29:17.314Z,7.70
2023-04-17T06:31:18.826Z,7.30
2023-04-17T06:33:25.338Z,5.97
2023-04-17T06:35:28.709Z,7.28
2023-04-17T06:37:33.731Z,5.80
2023-04-17T06:39:38.232Z,6.30
2023-04-17T06:41:39.835Z,9.05
2023-04-17T06:43:44.504Z,8.77
2023-04-17T06:45:46.125Z,5.63
2023-04-17T07:06:59.514Z,12.13
2023-04-17T07:09:03.949Z,5.15
2023-04-17T07:11:09.282Z,6.93
2023-04-17T07:13:10.732Z,7.85
2023-04-17T07:15:15.515Z,6.70
2023-04-17T07:17:17.114Z,6.55
2023-04-17T07:19:18.660Z,5.00
2023-04-17T07:21:20.195Z,7.30
2023-04-17T07:23:21.837Z,12.60
2023-04-17T07:25:41.951Z,8.02
2023-04-17T07:27:46.389Z,7.15
2023-04-17T07:29:54.222Z,9.23
2023-04-17T07:32:14.422Z,5.88
2023-04-17T07:34:18.468Z,6.50
2023-04-17T07:36:21.388Z,10.65
2023-04-17T07:38:28.341Z,6.38
2023-04-17T07:40:34.683Z,11.25
2023-04-17T07:42:36.301Z,4.00
2023-04-17T07:44:40.666Z,7.90
2023-04-17T07:46:42.171Z,5.95
2023-04-17T07:48:43.600Z,6.35
2023-04-17T07:51:03.986Z,7.90
2023-04-17T07:53:08.269Z,7.43
2023-04-17T07:55:09.791Z,6.65
2023-04-17T07:57:18.154Z,6.65
2023-04-17T07:59:19.658Z,7.45
2023-04-17T08:01:24.115Z,7.90
2023-04-17T08:03:28.394Z,6.60
2023-04-17T08:05:30.512Z,6.30
2023-04-17T08:07:32.153Z,9.90
2023-04-17T08:09:37.274Z,3.17
2023-04-17T08:11:49.790Z,7.05
2023-04-17T08:13:55.470Z,5.32
2023-04-17T08:15:56.960Z,10.00
2023-04-17T08:18:01.295Z,5.43
2023-04-17T08:20:13.445Z,5.68
2023-04-17T08:22:19.676Z,4.82
2023-04-17T08:24:21.087Z,7.82
2023-04-17T08:26:22.575Z,5.72
2023-04-17T08:28:24.721Z,3.17
2023-04-17T08:30:26.325Z,7.47
2023-04-17T08:32:28.671Z,6.63
2023-04-17T08:34:32.922Z,5.45
2023-04-17T08:36:37.127Z,6.38
2023-04-17T08:38:38.741Z,6.70
2023-04-17T08:40:47.717Z,5.55
2023-04-17T08:42:55.203Z,8.77
2023-04-17T08:45:06.678Z,12.05
2023-04-17T08:47:10.571Z,6.85
2023-04-17T08:55:48.480Z,9.77
2023-04-17T08:58:05.118Z,4.47
2023-04-17T09:00:34.751Z,9.90
2023-04-17T09:02:56.333Z,5.60
2023-04-17T09:05:00.125Z,6.07
2023-04-17T09:07:04.925Z,8.32
2023-04-17T09:09:08.509Z,12.23
2023-04-17T09:11:18.764Z,7.72
2023-04-17T09:13:25.977Z,5.00
2023-04-17T09:15:30.873Z,6.75
2023-04-17T09:17:37.928Z,4.88
2023-04-17T09:20:09.255Z,9.70
2023-04-17T09:22:20.684Z,9.77
2023-04-17T09:24:34.739Z,10.15
2023-04-17T09:26:39.410Z,9.15
2023-04-17T09:28:41.342Z,5.53
2023-04-17T09:30:43.129Z,8.63
2023-04-17T09:32:47.174Z,9.43
2023-04-17T09:34:51.898Z,7.18
2023-04-17T09:36:56.175Z,9.05
2023-04-17T09:39:03.404Z,9.55
2023-04-17T09:41:22.263Z,7.00
2023-04-17T09:43:40.233Z,6.45
2023-04-17T09:45:45.186Z,10.88
2023-04-17T09:47:47.585Z,8.77
2023-04-17T09:49:50.276Z,6.88
2023-04-17T09:51:55.088Z,5.43
2023-04-17T09:54:16.128Z,7.55
2023-04-17T09:56:22.045Z,4.72
2023-04-17T09:58:23.699Z,7.13
2023-04-17T10:00:28.093Z,8.30
2023-04-17T10:02:32.865Z,6.32
2023-04-17T10:04:54.140Z,4.47
2023-04-17T10:07:14.492Z,9.02
2023-04-17T10:09:18.976Z,5.63
2023-04-17T10:11:42.418Z,7.72
2023-04-17T10:13:47.169Z,5.90
2023-04-17T10:15:51.644Z,6.00
2023-04-17T10:18:16.699Z,11.05
2023-04-17T10:20:38.205Z,3.17
2023-04-17T10:22:58.279Z,6.68
2023-04-17T10:25:15.473Z,4.38
2023-04-17T10:27:27.258Z,2.33
2023-04-17T10:29:50.156Z,8.75
2023-04-17T10:32:20.539Z,4.18
2023-04-17T10:34:34.674Z,3.05
2023-04-17T10:38:43.576Z,4.97
2023-04-17T10:40:50.865Z,2.65
2023-04-17T10:43:29.004Z,10.65
2023-04-17T10:45:51.914Z,8.07
2023-04-17T10:47:59.304Z,10.75
2023-04-17T10:50:08.811Z,5.55
2023-04-17T10:52:30.332Z,5.03
2023-04-17T10:54:57.883Z,8.48
2023-04-17T10:56:59.388Z,3.88
2023-04-17T10:59:07.591Z,8.35
2023-04-17T11:01:11.702Z,7.43
2023-04-17T11:03:15.662Z,6.10
2023-04-17T11:05:36.173Z,4.22
2023-04-17T11:07:41.599Z,8.13
2023-04-17T11:09:51.251Z,3.25
2023-04-17T11:11:52.813Z,6.93
2023-04-17T11:13:54.314Z,6.00
2023-04-17T11:16:17.442Z,9.02
2023-04-17T11:18:38.098Z,4.32
2023-04-17T11:20:42.498Z,3.78
2023-04-17T11:22:44.747Z,7.50
2023-04-17T11:25:05.109Z,4.35
2023-04-17T11:27:09.568Z,6.78
2023-04-17T11:29:17.490Z,5.00
2023-04-17T11:31:37.819Z,4.88
2023-04-17T11:33:39.366Z,7.68
2023-04-17T11:35:41.630Z,10.65
2023-04-17T11:38:04.166Z,7.85
2023-04-17T11:40:10.249Z,4.72
2023-04-17T11:42:25.226Z,8.02
2023-04-17T11:44:29.691Z,5.60
2023-04-17T11:46:31.185Z,5.47
2023-04-17T11:48:32.872Z,6.47
2023-04-17T11:50:36.677Z,6.18
2023-04-17T11:52:38.660Z,6.25
2023-04-17T11:54:45.989Z,5.60
2023-04-17T11:57:13.040Z,3.10
2023-04-17T11:59:43.624Z,7.22
2023-04-17T12:02:00.242Z,3.63
2023-04-17T12:04:21.789Z,2.78
2023-04-17T12:06:41.263Z,3.20
2023-04-17T12:09:00.245Z,7.15
2023-04-17T12:11:08.330Z,4.63
2023-04-17T12:13:19.141Z,8.05
2023-04-17T12:15:33.541Z,7.05
2023-04-17T12:17:47.182Z,6.70
2023-04-17T12:19:58.566Z,8.38
2023-04-17T12:22:06.732Z,3.95
2023-04-17T12:24:15.144Z,9.00
2023-04-17T12:26:21.032Z,5.55
2023-04-17T12:28:32.001Z,6.70
2023-04-17T12:31:01.636Z,3.88
2023-04-17T12:33:21.633Z,7.03
2023-04-17T12:35:23.758Z,4.40
2023-04-17T12:37:27.972Z,5.97
2023-04-17T12:39:29.468Z,10.32
2023-04-17T12:41:33.469Z,4.88
2023-04-17T12:43:34.902Z,5.20
2023-04-17T12:45:42.113Z,7.38
2023-04-17T12:47:44.360Z,5.82
2023-04-17T12:49:46.052Z,4.47
2023-04-17T12:51:51.336Z,4.72
2023-04-17T12:53:56.120Z,8.93
2023-04-17T12:55:57.614Z,7.15
2023-04-17T12:57:59.123Z,5.88
2023-04-17T13:00:05.953Z,8.15
2023-04-17T13:02:10.194Z,5.22
2023-04-17T13:04:12.485Z,6.72
2023-04-17T13:06:17.286Z,4.93
2023-04-17T13:08:19.425Z,4.15
2023-04-17T13:10:23.923Z,5.38
2023-04-17T13:12:25.940Z,7.13
2023-04-17T13:14:27.481Z,6.40
2023-04-17T13:16:31.892Z,3.60
2023-04-17T13:18:36.254Z,6.95
2023-04-17T13:20:37.750Z,3.70
2023-04-17T13:22:39.335Z,5.03
2023-04-17T13:24:44.118Z,8.77
2023-04-17T13:27:04.274Z,7.35
2023-04-17T13:29:06.285Z,10.30
2023-04-17T13:31:07.793Z,8.05
2023-04-17T13:33:12.554Z,14.73
2023-04-17T13:35:17.257Z,7.30
2023-04-17T13:37:21.369Z,8.65
2023-04-17T13:39:22.980Z,11.88
2023-04-17T13:41:43.088Z,22.40
2023-04-17T13:43:44.566Z,13.90
2023-04-17T13:46:04.978Z,10.38
2023-04-17T13:48:25.174Z,8.30
2023-04-17T13:50:26.593Z,20.67
2023-04-17T13:52:30.987Z,12.23
2023-04-17T13:54:35.480Z,12.68
2023-04-17T13:56:37.138Z,13.90
2023-04-17T13:58:41.418Z,12.35
2023-04-17T14:00:42.911Z,11.95
2023-04-17T14:02:47.080Z,13.05
2023-04-17T14:04:48.874Z,9.45
2023-04-17T14:07:08.837Z,10.23
2023-04-17T14:09:13.208Z,18.63
2023-04-17T14:11:15.430Z,15.65
2023-04-17T14:13:16.833Z,11.68
2023-04-17T14:15:21.130Z,16.25
2023-04-17T14:17:23.063Z,12.45
2023-04-17T14:19:27.167Z,16.40
2023-04-17T14:21:28.582Z,14.00
2023-04-17T14:23:30.443Z,11.52
2023-04-17T14:25:31.844Z,11.68
2023-04-17T14:27:35.647Z,11.65
2023-04-17T14:29:55.563Z,8.57
2023-04-17T14:31:57.142Z,15.48
2023-04-17T14:33:58.665Z,12.00
2023-04-17T14:36:00.210Z,8.57
2023-04-17T14:38:05.065Z,15.02
2023-04-17T14:40:25.225Z,10.05
2023-04-17T14:42:54.101Z,15.50
2023-04-17T14:44:59.093Z,15.88
2023-04-17T14:47:03.528Z,11.38
2023-04-17T14:49:08.582Z,9.13
2023-04-17T14:51:13.953Z,14.18
2023-04-17T14:53:19.470Z,13.02
2023-04-17T14:55:23.279Z,7.45
2023-04-17T14:57:24.808Z,13.13
2023-04-17T14:59:29.034Z,10.82
2023-04-17T15:01:50.700Z,15.05
2023-04-17T15:06:03.445Z,12.60
2023-04-17T15:08:06.929Z,13.85
2023-04-17T15:10:13.904Z,13.35
2023-04-17T15:12:20.165Z,17.48
2023-04-17T15:14:24.107Z,11.45
2023-04-17T15:16:31.690Z,11.18
2023-04-17T15:18:37.574Z,14.32
2023-04-17T15:20:47.420Z,11.68
2023-04-17T15:22:53.164Z,13.35
2023-04-17T15:24:56.349Z,16.48
2023-04-17T15:27:02.983Z,14.75
2023-04-17T15:29:09.404Z,13.75
2023-04-17T15:31:12.731Z,15.98
2023-04-17T15:33:35.214Z,10.40
2023-04-17T15:35:39.224Z,11.80
2023-04-17T15:39:42.546Z,10.38
2023-04-17T15:41:47.692Z,14.55
2023-04-17T15:43:49.308Z,9.85
2023-04-17T15:45:51.414Z,9.20
2023-04-17T15:47:53.672Z,15.35
2023-04-17T15:49:55.557Z,11.55
2023-04-17T15:51:56.967Z,12.65
2023-04-17T15:56:06.826Z,9.40
2023-04-17T15:58:11.086Z,13.82
2023-04-17T16:00:15.654Z,15.38
2023-04-17T16:02:35.967Z,13.13
2023-04-17T16:04:43.066Z,12.05
2023-04-17T16:06:44.817Z,11.07
2023-04-17T16:08:46.677Z,14.18
2023-04-17T16:10:48.295Z,13.63
2023-04-17T16:12:49.772Z,10.18
2023-04-17T16:14:53.766Z,14.85
2023-04-17T16:16:59.917Z,12.60
2023-04-17T16:19:01.587Z,11.82
2023-04-17T16:21:03.390Z,14.48
2023-04-17T16:23:05.032Z,9.88
2023-04-17T16:25:11.985Z,11.90
2023-04-17T16:27:16.413Z,8.80
2023-04-17T16:29:17.877Z,10.98
2023-04-17T16:31:26.557Z,7.43
2023-04-17T16:33:30.996Z,13.60
2023-04-17T16:35:32.593Z,9.20
2023-04-17T16:37:37.405Z,5.97
2023-04-17T16:39:41.727Z,10.98
2023-04-17T16:41:43.300Z,8.52
2023-04-17T16:43:47.417Z,9.63
2023-04-17T16:45:51.653Z,10.57
2023-04-17T16:47:53.223Z,6.45
2023-04-17T16:49:57.723Z,24.58
2023-04-17T16:51:59.660Z,11.07
2023-04-17T16:54:01.215Z,14.30
2023-04-17T16:56:06.289Z,6.53
2023-04-17T16:58:07.839Z,9.75
2023-04-17T17:00:12.546Z,11.05
2023-04-17T17:02:14.213Z,9.25
2023-04-17T17:04:16.074Z,8.90
2023-04-17T17:06:21.232Z,12.32
2023-04-17T17:08:46.476Z,10.65
2023-04-17T17:10:49.936Z,10.50
2023-04-17T17:12:51.537Z,9.95
2023-04-17T17:14:53.053Z,16.00
2023-04-17T17:16:54.676Z,14.57
2023-04-17T17:18:56.396Z,14.02
2023-04-17T17:21:01.854Z,10.95
2023-04-17T17:23:06.454Z,11.50
2023-04-17T17:25:08.828Z,13.32
2023-04-17T17:27:10.418Z,14.90
2023-04-17T17:29:30.509Z,10.45
2023-04-17T17:31:34.939Z,7.28
2023-04-17T17:33:39.180Z,7.65
2023-04-17T17:35:40.750Z,10.50
2023-04-17T17:38:01.174Z,5.90
2023-04-17T17:40:04.275Z,10.77
2023-04-17T17:42:08.777Z,9.07
2023-04-17T17:44:10.534Z,10.80
2023-04-17T17:46:12.123Z,9.02
2023-04-17T17:48:15.630Z,11.60
2023-04-17T17:50:36.312Z,7.25
2023-04-17T17:52:37.825Z,9.65
2023-04-17T17:54:39.456Z,11.77
2023-04-17T17:56:43.564Z,11.80
2023-04-17T17:58:49.701Z,12.38
2023-04-17T18:00:54.062Z,7.75
2023-04-17T18:03:08.724Z,8.48
2023-04-17T18:05:22.619Z,8.60
2023-04-17T18:07:32.680Z,8.35
2023-04-17T18:09:50.188Z,10.60
2023-04-17T18:12:03.761Z,16.33
2023-04-17T18:14:11.334Z,15.07
2023-04-17T18:16:23.804Z,14.00
2023-04-17T18:18:36.169Z,10.85
2023-04-17T18:20:46.943Z,7.63
2023-04-17T18:22:59.430Z,14.80
2023-04-17T18:25:10.462Z,15.00
2023-04-17T18:27:24.727Z,10.13
2023-04-17T18:29:35.558Z,11.93
2023-04-17T18:32:03.625Z,18.50
2023-04-17T18:34:14.051Z,10.07
2023-04-17T18:36:27.152Z,30.08
2023-04-17T18:38:35.994Z,22.48
2023-04-17T18:40:41.330Z,162.02
2023-04-17T18:43:01.148Z,81.72
2023-04-17T18:45:03.318Z,67.68
2023-04-17T18:47:07.739Z,46.83
2023-04-17T18:49:09.364Z,11.20
2023-04-17T18:51:17.585Z,35.03
2023-04-17T18:53:19.065Z,41.80
2023-04-17T18:55:20.600Z,46.65
2023-04-17T18:57:24.714Z,48.90
2023-04-17T18:59:28.028Z,27.67
2023-04-17T19:01:29.594Z,11.40
2023-04-17T19:03:31.212Z,17.90
2023-04-17T19:05:36.155Z,10.65
2023-04-17T19:07:40.850Z,9.35
2023-04-17T19:09:42.504Z,16.70
2023-04-17T19:11:43.985Z,10.93
2023-04-17T19:13:48.205Z,17.20
2023-04-17T19:15:52.544Z,16.60
2023-04-17T19:18:12.711Z,35.05
2023-04-17T19:20:32.728Z,23.23
2023-04-17T19:24:41.007Z,15.82
2023-04-17T19:26:48.437Z,8.43
2023-04-17T19:28:50.008Z,9.10
2023-04-17T19:30:54.580Z,20.90
2023-04-17T19:32:58.969Z,40.63
2023-04-17T19:35:00.539Z,58.60
2023-04-17T19:37:05.098Z,102.10
2023-04-17T19:39:06.652Z,155.80
2023-04-17T19:41:17.925Z,86.25
2023-04-17T19:43:22.221Z,107.15
2023-04-17T19:45:43.884Z,162.73
2023-04-17T19:48:04.275Z,77.80
2023-04-17T19:50:10.094Z,107.30
2023-04-17T19:52:14.900Z,84.97
2023-04-17T19:54:16.357Z,63.15
2023-04-17T19:56:17.846Z,36.75
2023-04-17T19:58:19.392Z,37.20
2023-04-17T20:00:39.763Z,81.95
2023-04-17T20:02:41.797Z,64.90
2023-04-17T20:04:45.866Z,76.60
2023-04-17T20:06:47.404Z,54.90
2023-04-17T20:10:53.126Z,59.28
2023-04-17T20:12:54.521Z,102.65
2023-04-17T20:14:58.692Z,99.32
2023-04-17T20:17:04.072Z,130.23
2023-04-17T20:19:05.612Z,90.55
2023-04-17T20:21:09.834Z,82.57
2023-04-17T20:23:14.132Z,50.10
2023-04-17T20:25:15.673Z,24.70
2023-04-17T20:27:17.659Z,20.40
2023-04-17T20:29:19.199Z,39.47
2023-04-17T20:31:21.444Z,34.40
2023-04-17T20:33:23.018Z,37.42
2023-04-17T20:35:30.277Z,28.75
2023-04-17T20:37:31.698Z,30.13
2023-04-17T20:39:33.236Z,33.22
2023-04-17T20:41:38.986Z,25.58
2023-04-17T20:43:41.868Z,34.33
2023-04-17T20:45:48.275Z,43.30
2023-04-17T20:47:57.084Z,88.70
2023-04-17T20:49:58.801Z,63.33
2023-04-17T20:54:07.410Z,30.35
2023-04-17T20:56:08.888Z,28.48
2023-04-17T21:00:17.350Z,39.45
2023-04-17T21:02:21.991Z,51.85
2023-04-17T21:04:23.678Z,60.20
2023-04-17T21:06:28.007Z,29.83
2023-04-17T21:08:51.967Z,31.30
2023-04-17T21:11:04.670Z,35.20
2023-04-17T21:13:08.986Z,69.25
2023-04-17T21:15:13.150Z,38.63
2023-04-17T21:17:19.756Z,41.88
2023-04-17T21:19:29.589Z,33.63
2023-04-17T21:21:33.507Z,36.03
2023-04-17T21:25:40.116Z,27.80
2023-04-17T21:27:47.153Z,33.05
2023-04-17T21:29:50.733Z,38.67
2023-04-17T21:31:54.588Z,30.50
2023-04-17T21:33:58.421Z,44.40
2023-04-17T21:36:01.885Z,83.40
2023-04-17T21:38:05.198Z,117.28
2023-04-17T21:40:12.567Z,89.80
2023-04-17T21:42:19.985Z,62.10
2023-04-17T21:44:22.020Z,42.08
2023-04-17T21:46:26.115Z,33.25
2023-04-17T21:48:30.527Z,34.97
2023-04-17T21:50:51.276Z,32.38
2023-04-17T21:53:11.387Z,39.17
2023-04-17T21:55:12.800Z,38.08
2023-04-17T21:57:17.056Z,39.50
2023-04-17T21:59:18.499Z,45.90
2023-04-17T22:01:22.827Z,41.10
2023-04-17T22:03:27.209Z,48.90
2023-04-17T22:05:31.594Z,66.97
2023-04-17T22:07:55.026Z,57.28
2023-04-17T22:09:58.335Z,59.90
2023-04-17T22:12:20.883Z,53.50
2023-04-17T22:14:25.264Z,54.10
2023-04-17T22:16:29.555Z,65.27
2023-04-17T22:18:31.185Z,61.78
2023-04-17T22:20:32.625Z,49.47
2023-04-17T22:22:36.796Z,41.85
2023-04-17T22:26:42.405Z,42.65
2023-04-17T22:28:46.823Z,41.28
2023-04-17T22:30:52.113Z,44.88
2023-04-17T22:32:57.286Z,51.17
2023-04-17T22:35:01.923Z,52.10
2023-04-17T22:37:06.128Z,54.38
2023-04-17T22:39:08.096Z,54.47
2023-04-17T22:41:12.461Z,54.93
2023-04-17T22:43:16.788Z,54.03
2023-04-17T22:45:18.289Z,51.08
2023-04-17T22:47:21.238Z,49.10
2023-04-17T22:49:41.585Z,47.75
2023-04-17T22:51:43.139Z,61.10
2023-04-17T22:56:10.705Z,50.50
2023-04-17T22:58:12.167Z,53.80
2023-04-17T23:02:36.741Z,44.50
2023-04-17T23:04:40.987Z,47.20
2023-04-17T23:06:42.547Z,44.65
2023-04-17T23:08:46.845Z,45.55
2023-04-17T23:11:07.644Z,46.10
2023-04-17T23:13:28.058Z,47.45
2023-04-17T23:15:29.594Z,52.40
2023-04-17T23:17:49.721Z,48.72
2023-04-17T23:19:51.228Z,43.30
2023-04-17T23:21:52.629Z,50.25
2023-04-17T23:23:55.580Z,57.55
2023-04-17T23:25:59.624Z,62.87
2023-04-17T23:28:03.988Z,56.75
2023-04-17T23:30:08.696Z,78.85
2023-04-17T23:32:10.142Z,87.32
2023-04-17T23:34:11.856Z,67.13
2023-04-17T23:36:32.029Z,79.95
2023-04-17T23:38:36.257Z,77.40
2023-04-17T23:40:37.771Z,86.72
2023-04-17T23:42:42.148Z,80.18
2023-04-17T23:44:43.635Z,82.40
2023-04-17T23:48:49.204Z,78.13
2023-04-17T23:50:50.839Z,74.82
2023-04-17T23:52:55.020Z,70.85
2023-04-17T23:55:14.899Z,77.40
2023-04-17T23:59:20.440Z,72.65
